Aérodrome :
LOGIN :

S'inscrire | Disclaimer

   EN    FR    IT 

 










Légende :    VFR   VFR Marginal   IFR   IFR Intensif   IFR Très Intensif
Visi : 
Plafond : 
>= 8 km
>= 3000ft
5 à 8 km
1000 à 3000 ft
1500m à 5 km
500 à 1000 ft
800 à 1500m
200 à 500 ft
< 800m
< 200 ft
Symboles :   Orages  Brouillard  Fortes neiges  Fortes précipitations  Vent > 20 kt
SIGMETs :   Divers  Orages  Givrage  Turbulence  Onde Orograph.  Cendres Volcan.






- Altitude de l'aérodrome : 489 ft
- Code IATA : GDN


EPGD - Gdansk

DERNIER METAR :
  • 051800Z 28012KT 9999 BKN041 22/16 Q1005

METARs EXPIRÉS :
  • 051730Z 26008KT 9999 BKN041 24/16 Q1005
  • 051700Z 23010KT 9999 BKN044 24/16 Q1005
  • 051630Z 23011KT 9999 SCT044 24/16 Q1005
  • 051600Z 22012KT CAVOK 24/16 Q1005
  • 051530Z 22016KT 9999 FEW044 25/16 Q1005

TAF TAF EPGD
Valide du 05 à 18h jusqu'au 06 à 18h UTC


051730Z 0518/0618 25010KT 9999 BKN030
TEMPO 0518/0524 24015G25KT SHRA SCT012 BKN025CB
TEMPO 0608/0618 27018G32KT SHRA BKN025CB



MET'MAP, la Météo Aéronautique d'un coup d'oeil ! - Copyright ORBIFLY Décembre 2007 - Disclaimer

ORBIFLY MET'MAP TEAM :

Programmation & Développement : Alexandra Zaïnal
Sur une idée originale de : Baudouin d'Aumeries
Assistance à la programmation : Marc-Olivier Méhu
Soutien technique & logistique : Manuel Goepfert

Contact : metmap@orbifly.com




SOURCES & CREDITS :

   NOAA